OAE3876 KBWI-LBSF
Flight info
| Callsign | OAE3876 |
|---|---|
| Flight time | N/A |
| Altitude | 37000 |
| Route | DUKPN1 BROSS Q419 RBV DCT EBONY N687B NEEKO/M083F390 DCT 54N050W 56N040W 57N030W 57N020W DCT PIKIL DCT SOVED/N0470F390 DCT IBROD DCT GOW DCT TLA DCT ERKIT N110 USEKA/N0483F410 N110 DOLAS DCT NAVPI DCT SOGPO DCT ONUNE DCT BADGO DCT SWALM DCT VELIS DCT OKG DCT PEPIK DCT ERGUZ DCT PADGU DCT OSTOV M748 GOL |
| Aircraft | B772/H-SDE2E3FGHIJ5LORVWXY/LB1D1 |
Departure
| Time | N/A |
|---|---|
| Airport | Baltimore/Washington International Thurgood Marshall Airport (KBWI) |
Arrival
| Time | 2026-04-28 13:52 |
|---|---|
| Airport | Sofia Airport (LBSF) |
| Time | Latitude | Longitude | Altitude | Speed | Heading |
|---|---|---|---|---|---|
| 2026-04-28 13:25 | 44.66504 | 22.74934 | 41077 ft | 516 kts | 141° |
| 2026-04-28 13:25 | 44.61089 | 22.81534 | 41063 ft | 516 kts | 141° |
| 2026-04-28 13:26 | 44.55665 | 22.88114 | 41072 ft | 515 kts | 141° |
| 2026-04-28 13:26 | 44.50254 | 22.94651 | 41072 ft | 516 kts | 141° |
| 2026-04-28 13:27 | 44.44961 | 23.01024 | 41073 ft | 516 kts | 141° |
| 2026-04-28 13:27 | 44.39514 | 23.07568 | 41076 ft | 516 kts | 141° |
| 2026-04-28 13:28 | 44.34059 | 23.14104 | 41072 ft | 516 kts | 142° |
| 2026-04-28 13:28 | 44.28604 | 23.20626 | 41079 ft | 516 kts | 142° |
| 2026-04-28 13:29 | 44.23145 | 23.27135 | 41078 ft | 516 kts | 142° |
| 2026-04-28 13:29 | 44.17716 | 23.33591 | 41086 ft | 516 kts | 142° |
| 2026-04-28 13:30 | 44.12243 | 23.40084 | 41077 ft | 516 kts | 142° |
| 2026-04-28 13:30 | 44.06779 | 23.46551 | 41082 ft | 515 kts | 142° |
| 2026-04-28 13:31 | 43.99533 | 23.55101 | 41080 ft | 515 kts | 142° |
| 2026-04-28 13:31 | 43.94067 | 23.61534 | 41079 ft | 515 kts | 142° |
| 2026-04-28 13:32 | 43.88595 | 23.67957 | 41075 ft | 515 kts | 142° |
| 2026-04-28 13:32 | 43.83145 | 23.74340 | 40810 ft | 507 kts | 142° |
| 2026-04-28 13:33 | 43.80392 | 23.77435 | 40473 ft | 514 kts | 146° |
| 2026-04-28 13:33 | 43.77418 | 23.80200 | 40408 ft | 515 kts | 151° |
| 2026-04-28 13:33 | 43.71135 | 23.84612 | 40025 ft | 502 kts | 160° |
| 2026-04-28 13:34 | 43.67931 | 23.86537 | 39363 ft | 503 kts | 160° |
| 2026-04-28 13:34 | 43.64701 | 23.88454 | 38626 ft | 507 kts | 160° |
| 2026-04-28 13:34 | 43.61457 | 23.90395 | 37701 ft | 510 kts | 160° |
| 2026-04-28 13:34 | 43.58194 | 23.92371 | 36774 ft | 513 kts | 159° |
| 2026-04-28 13:35 | 43.54915 | 23.94377 | 35897 ft | 516 kts | 159° |
| 2026-04-28 13:35 | 43.51631 | 23.96395 | 35063 ft | 518 kts | 159° |
| 2026-04-28 13:35 | 43.48336 | 23.98421 | 34199 ft | 520 kts | 159° |
| 2026-04-28 13:35 | 43.45203 | 24.00342 | 33209 ft | 523 kts | 159° |
| 2026-04-28 13:36 | 43.41879 | 24.02374 | 32182 ft | 525 kts | 159° |
| 2026-04-28 13:36 | 43.38536 | 24.04414 | 31165 ft | 527 kts | 159° |
| 2026-04-28 13:36 | 43.35235 | 24.06430 | 30168 ft | 528 kts | 158° |
| 2026-04-28 13:36 | 43.31837 | 24.08507 | 29254 ft | 522 kts | 158° |
| 2026-04-28 13:37 | 43.28545 | 24.10521 | 28551 ft | 513 kts | 158° |
| 2026-04-28 13:37 | 43.25361 | 24.12465 | 27872 ft | 498 kts | 158° |
| 2026-04-28 13:37 | 43.22286 | 24.14343 | 26538 ft | 476 kts | 159° |
| 2026-04-28 13:37 | 43.19276 | 24.16172 | 25158 ft | 472 kts | 159° |
| 2026-04-28 13:38 | 43.16272 | 24.17912 | 23853 ft | 463 kts | 165° |
| 2026-04-28 13:38 | 43.13151 | 24.18635 | 22334 ft | 449 kts | 184° |
| 2026-04-28 13:38 | 43.10132 | 24.18013 | 21096 ft | 435 kts | 202° |
| 2026-04-28 13:38 | 43.07396 | 24.16401 | 20401 ft | 418 kts | 212° |
| 2026-04-28 13:39 | 43.05025 | 24.14296 | 19681 ft | 394 kts | 224° |
| 2026-04-28 13:39 | 43.03227 | 24.11654 | 19049 ft | 370 kts | 236° |
| 2026-04-28 13:39 | 43.01669 | 24.08901 | 18449 ft | 363 kts | 236° |
| 2026-04-28 13:39 | 43.00105 | 24.06175 | 17772 ft | 368 kts | 235° |
| 2026-04-28 13:40 | 42.98498 | 24.03401 | 17150 ft | 386 kts | 235° |
| 2026-04-28 13:40 | 42.96814 | 24.00520 | 16467 ft | 383 kts | 234° |
| 2026-04-28 13:40 | 42.95177 | 23.97745 | 15861 ft | 365 kts | 234° |
| 2026-04-28 13:40 | 42.93613 | 23.95106 | 15266 ft | 351 kts | 234° |
| 2026-04-28 13:41 | 42.92092 | 23.92533 | 14679 ft | 346 kts | 234° |
| 2026-04-28 13:41 | 42.90567 | 23.89952 | 14117 ft | 355 kts | 234° |
| 2026-04-28 13:41 | 42.88979 | 23.87263 | 13499 ft | 369 kts | 234° |
| 2026-04-28 13:41 | 42.87334 | 23.84486 | 12894 ft | 380 kts | 233° |
| 2026-04-28 13:42 | 42.85662 | 23.81737 | 12316 ft | 368 kts | 229° |
| 2026-04-28 13:42 | 42.83609 | 23.79678 | 11677 ft | 370 kts | 209° |
| 2026-04-28 13:42 | 42.81176 | 23.78577 | 11226 ft | 369 kts | 192° |
| 2026-04-28 13:42 | 42.78634 | 23.78708 | 10800 ft | 369 kts | 165° |
| 2026-04-28 13:43 | 42.76435 | 23.80389 | 10594 ft | 361 kts | 137° |
| 2026-04-28 13:43 | 42.75084 | 23.83127 | 10419 ft | 350 kts | 109° |
| 2026-04-28 13:43 | 42.74826 | 23.86198 | 10253 ft | 310 kts | 79° |
| 2026-04-28 13:43 | 42.75229 | 23.88899 | 10138 ft | 276 kts | 83° |
| 2026-04-28 13:44 | 42.75162 | 23.91402 | 10036 ft | 258 kts | 95° |
| 2026-04-28 13:44 | 42.74898 | 23.93946 | 9899 ft | 288 kts | 104° |
| 2026-04-28 13:44 | 42.73903 | 23.96404 | 9551 ft | 306 kts | 136° |
| 2026-04-28 13:44 | 42.72109 | 23.97883 | 9187 ft | 302 kts | 168° |
| 2026-04-28 13:45 | 42.70063 | 23.97888 | 8840 ft | 292 kts | 199° |
| 2026-04-28 13:45 | 42.68332 | 23.96590 | 8487 ft | 282 kts | 226° |
| 2026-04-28 13:45 | 42.67183 | 23.94485 | 8140 ft | 275 kts | 247° |
| 2026-04-28 13:45 | 42.66581 | 23.92051 | 7812 ft | 268 kts | 264° |
| 2026-04-28 13:46 | 42.66597 | 23.89582 | 7479 ft | 256 kts | 277° |
| 2026-04-28 13:46 | 42.66780 | 23.87179 | 7181 ft | 254 kts | 278° |
| 2026-04-28 13:46 | 42.66981 | 23.84837 | 6884 ft | 252 kts | 278° |
| 2026-04-28 13:46 | 42.67173 | 23.82465 | 6591 ft | 252 kts | 277° |
| 2026-04-28 13:47 | 42.67332 | 23.80100 | 6279 ft | 251 kts | 277° |
| 2026-04-28 13:47 | 42.67478 | 23.77743 | 6073 ft | 249 kts | 276° |
| 2026-04-28 13:47 | 42.67617 | 23.75438 | 6042 ft | 240 kts | 276° |
| 2026-04-28 13:47 | 42.67748 | 23.73229 | 5923 ft | 230 kts | 277° |
| 2026-04-28 13:48 | 42.67879 | 23.71065 | 5609 ft | 230 kts | 277° |
| 2026-04-28 13:48 | 42.68007 | 23.68912 | 5295 ft | 228 kts | 278° |
| 2026-04-28 13:48 | 42.68138 | 23.66778 | 5010 ft | 224 kts | 277° |
| 2026-04-28 13:48 | 42.68261 | 23.64708 | 4724 ft | 216 kts | 278° |
| 2026-04-28 13:49 | 42.68380 | 23.62714 | 4443 ft | 208 kts | 278° |
| 2026-04-28 13:49 | 42.68497 | 23.60794 | 4152 ft | 199 kts | 278° |
| 2026-04-28 13:49 | 42.68604 | 23.58991 | 3902 ft | 183 kts | 278° |
| 2026-04-28 13:49 | 42.68707 | 23.57287 | 3672 ft | 180 kts | 278° |
| 2026-04-28 13:50 | 42.68810 | 23.55612 | 3464 ft | 181 kts | 277° |
| 2026-04-28 13:50 | 42.68915 | 23.53880 | 3201 ft | 184 kts | 277° |
| 2026-04-28 13:50 | 42.69014 | 23.52208 | 2951 ft | 171 kts | 275° |
| 2026-04-28 13:50 | 42.69087 | 23.50647 | 2758 ft | 157 kts | 276° |
| 2026-04-28 13:51 | 42.69165 | 23.49268 | 2531 ft | 138 kts | 279° |
| 2026-04-28 13:51 | 42.69259 | 23.48036 | 2413 ft | 130 kts | 279° |
| 2026-04-28 13:51 | 42.69329 | 23.46823 | 2211 ft | 125 kts | 281° |
| 2026-04-28 13:51 | 42.69409 | 23.45647 | 2059 ft | 127 kts | 280° |
| 2026-04-28 13:52 | 42.69484 | 23.44426 | 1891 ft | 131 kts | 279° |
| 2026-04-28 13:52 | 42.69560 | 23.43210 | 1755 ft | 121 kts | 275° |
| 2026-04-28 13:52 | 42.69619 | 23.42237 | 1747 ft | 82 kts | 275° |
| 2026-04-28 13:52 | 42.69650 | 23.41675 | 1754 ft | 39 kts | 274° |
| 2026-04-28 13:53 | 42.69672 | 23.41286 | 1748 ft | 39 kts | 275° |
| 2026-04-28 13:53 | 42.69675 | 23.40943 | 1749 ft | 34 kts | 258° |
| 2026-04-28 13:53 | 42.69605 | 23.40719 | 1741 ft | 18 kts | 230° |
| 2026-04-28 13:53 | 42.69523 | 23.40749 | 1743 ft | 15 kts | 114° |
| 2026-04-28 13:54 | 42.69509 | 23.40886 | 1744 ft | 15 kts | 94° |
| 2026-04-28 13:54 | 42.69501 | 23.41025 | 1752 ft | 15 kts | 94° |
| 2026-04-28 13:54 | 42.69494 | 23.41158 | 1745 ft | 10 kts | 95° |
| 2026-04-28 13:54 | 42.69451 | 23.41212 | 1749 ft | 9 kts | 180° |
| 2026-04-28 13:55 | 42.69387 | 23.41197 | 1743 ft | 9 kts | 191° |
| 2026-04-28 13:55 | 42.69324 | 23.41180 | 1747 ft | 9 kts | 191° |
| 2026-04-28 13:55 | 42.69260 | 23.41163 | 1746 ft | 10 kts | 191° |
| 2026-04-28 13:55 | 42.69150 | 23.41126 | 1745 ft | 18 kts | 201° |
| 2026-04-28 13:56 | 42.69044 | 23.41056 | 1750 ft | 17 kts | 205° |
| 2026-04-28 13:56 | 42.68934 | 23.41041 | 1742 ft | 12 kts | 159° |
| 2026-04-28 13:56 | 42.68903 | 23.41056 | 1744 ft | 0 kts | 161° |